Aeroporto :
LOGIN :

Iscrizione | Disclaimer

   EN    FR    IT 

 










Sommario :    VFR   VFR Marginale   IFR   IFR Intensivo   IFR Molto Intensivo
Visibilità : 
Base nubi : 
>= 8 km
>= 3000ft
5 / 8 km
1000 / 3000 ft
1500m / 5 km
500 / 1000 ft
800 / 1500m
200 / 500 ft
< 800m
< 200 ft
Simboli :   Temporali  Nebbia  Neve Forte  Precipitazioni Forti  Vento > 20 kt
SIGMETs :   Varie  Temporali  Ghiacco  Turbolenza  Onda orograficha  Ceneri Vulcaniche






- Altitudine del aeroporto : 650 ft
- Codice IATA : ZJI


LSZL - Locarno

ULTIMO METAR :
  • 171650Z AUTO 05002KT 9999NDV FEW016 SCT022 04/04 Q1005 RERA RMK

METARs OBSOLETI :
  • 171620Z AUTO 10004KT 9000NDV RA FEW016 SCT023 04/04 Q1005 RMK
  • 171550Z AUTO 10004KT 070V130 9999NDV RA FEW025 BKN037 BKN051 04/04 Q1004 RMK
  • 171520Z AUTO 08003KT 9999NDV -RA SCT039 04/04 Q1003 RERA RMK
  • 171450Z AUTO VRB02KT 9999NDV -RA FEW032 SCT039 04/04 Q1003 RERA RMK

Previsioni scadute.



MetMap, La meteo Aeronautica in un colpo d'occhio ! - Copyright ORBIFLY Dicembre 2007 - Disclaimer

ORBIFLY MET'MAP TEAM :

Programmazione e sviluppo : Alexandra Zaïnal
Concezione e sviluppo : Baudouin d'Aumeries
Co-Programmazione e sviluppo : Marc-Olivier Méhu
Supporto tecnico e logistico : Manuel Goepfert
Aiuto per la traduzione : Arnaldo La Scala

Contatto : metmap@orbifly.com




FONTI E CREDITI :

   NOAA